createdAt,value
2023-01-30T00:00:44.709Z,8.80
2023-01-30T00:03:47.405Z,9.23
2023-01-30T00:06:49.781Z,9.63
2023-01-30T00:09:52.336Z,9.85
2023-01-30T00:12:54.702Z,9.75
2023-01-30T00:15:57.364Z,10.43
2023-01-30T00:18:59.711Z,10.77
2023-01-30T00:22:02.347Z,10.70
2023-01-30T00:25:05.309Z,9.02
2023-01-30T00:28:08.045Z,9.10
2023-01-30T00:31:10.487Z,10.05
2023-01-30T00:34:13.236Z,10.10
2023-01-30T00:37:15.768Z,9.63
2023-01-30T00:40:18.815Z,10.55
2023-01-30T00:43:40.273Z,10.93
2023-01-30T00:47:01.591Z,8.75
2023-01-30T00:50:04.302Z,8.88
2023-01-30T00:53:07.104Z,9.37
2023-01-30T00:56:09.649Z,9.77
2023-01-30T00:59:12.311Z,9.30
2023-01-30T01:02:14.660Z,9.73
2023-01-30T01:05:17.547Z,10.52
2023-01-30T01:08:20.207Z,8.98
2023-01-30T01:11:25.909Z,8.80
2023-01-30T01:14:29.868Z,10.07
2023-01-30T01:17:32.523Z,9.75
2023-01-30T01:20:34.949Z,9.27
2023-01-30T01:23:39.051Z,9.65
2023-01-30T01:26:42.242Z,9.48
2023-01-30T01:29:46.643Z,8.90
2023-01-30T01:32:49.061Z,8.77
2023-01-30T01:35:55.153Z,9.60
2023-01-30T01:38:58.329Z,9.38
2023-01-30T01:42:00.960Z,8.73
2023-01-30T01:45:10.617Z,9.23
2023-01-30T01:48:19.205Z,9.10
2023-01-30T01:51:27.787Z,7.80
2023-01-30T01:54:39.929Z,8.50
2023-01-30T01:57:54.033Z,9.60
2023-01-30T02:01:00.063Z,8.98
2023-01-30T02:04:06.251Z,8.68
2023-01-30T02:07:09.560Z,8.73
2023-01-30T02:10:18.921Z,8.70
2023-01-30T02:13:23.086Z,9.00
2023-01-30T02:16:25.472Z,9.27
2023-01-30T02:19:49.088Z,9.07
2023-01-30T02:23:14.955Z,9.10
2023-01-30T02:27:08.077Z,10.43
2023-01-30T02:30:36.132Z,9.52
2023-01-30T02:33:50.707Z,9.50
2023-01-30T02:37:32.631Z,8.70
2023-01-30T02:40:48.412Z,9.27
2023-01-30T02:44:32.397Z,9.95
2023-01-30T02:47:45.221Z,10.50
2023-01-30T02:50:57.135Z,10.52
2023-01-30T02:54:00.437Z,9.82
2023-01-30T02:57:02.925Z,10.05
2023-01-30T03:00:07.725Z,10.38
2023-01-30T03:03:11.115Z,10.57
2023-01-30T03:06:40.002Z,9.53
2023-01-30T03:10:07.572Z,9.38
2023-01-30T03:13:16.617Z,9.25
2023-01-30T03:16:26.072Z,10.43
2023-01-30T03:19:31.570Z,9.90
2023-01-30T03:22:35.094Z,9.98
2023-01-30T03:25:40.619Z,8.77
2023-01-30T03:28:43.947Z,9.60
2023-01-30T03:31:46.637Z,11.15
2023-01-30T03:34:49.073Z,11.27
2023-01-30T03:37:52.194Z,10.95
2023-01-30T03:40:54.641Z,10.38
2023-01-30T03:43:57.364Z,10.60
2023-01-30T03:47:00.232Z,11.30
2023-01-30T03:50:03.773Z,12.37
2023-01-30T03:53:06.639Z,11.80
2023-01-30T03:56:09.905Z,11.07
2023-01-30T03:59:12.615Z,12.02
2023-01-30T04:02:19.648Z,11.85
2023-01-30T04:05:23.674Z,11.77
2023-01-30T04:08:27.481Z,11.63
2023-01-30T04:11:30.734Z,12.57
2023-01-30T04:14:33.292Z,11.63
2023-01-30T04:17:39.304Z,10.63
2023-01-30T04:20:43.851Z,11.90
2023-01-30T04:23:47.732Z,11.32
2023-01-30T04:26:50.076Z,11.52
2023-01-30T04:29:52.725Z,11.65
2023-01-30T04:32:55.138Z,10.00
2023-01-30T04:35:59.816Z,11.32
2023-01-30T04:39:02.782Z,11.65
2023-01-30T04:42:05.995Z,11.48
2023-01-30T04:45:10.897Z,10.95
2023-01-30T04:48:14.299Z,12.37
2023-01-30T04:54:20.486Z,8.73
2023-01-30T04:57:22.820Z,10.55
2023-01-30T05:00:26.071Z,11.52
2023-01-30T05:03:29.753Z,11.07
2023-01-30T05:06:33.417Z,11.15
2023-01-30T05:09:35.704Z,11.55
2023-01-30T05:12:38.598Z,10.85
2023-01-30T05:15:41.124Z,9.75
2023-01-30T05:18:43.917Z,10.43
2023-01-30T05:21:46.253Z,10.70
2023-01-30T05:24:48.857Z,10.98
2023-01-30T05:27:51.140Z,11.30
2023-01-30T05:30:53.908Z,12.50
2023-01-30T05:33:56.276Z,11.85
2023-01-30T05:36:58.885Z,10.65
2023-01-30T05:40:01.233Z,10.82
2023-01-30T05:43:03.888Z,10.40
2023-01-30T05:46:07.446Z,11.57
2023-01-30T05:52:12.300Z,11.45
2023-01-30T05:55:15.213Z,11.32
2023-01-30T05:58:17.598Z,10.55
2023-01-30T06:01:21.111Z,10.82
2023-01-30T06:04:23.892Z,11.27
2023-01-30T06:07:26.439Z,11.65
2023-01-30T06:10:29.033Z,12.13
2023-01-30T06:13:31.986Z,11.48
2023-01-30T06:16:34.574Z,12.27
2023-01-30T06:19:36.876Z,11.52
2023-01-30T06:22:39.470Z,10.85
2023-01-30T06:25:48.945Z,12.30
2023-01-30T06:28:51.508Z,10.85
2023-01-30T06:31:53.846Z,11.68
2023-01-30T06:34:56.828Z,11.30
2023-01-30T06:37:59.213Z,11.38
2023-01-30T06:41:02.040Z,11.82
2023-01-30T06:44:04.541Z,12.55
2023-01-30T06:47:07.403Z,12.02
2023-01-30T06:50:10.130Z,13.45
2023-01-30T06:53:12.757Z,12.48
2023-01-30T06:56:15.135Z,11.18
2023-01-30T06:59:17.725Z,10.32
2023-01-30T07:02:20.050Z,11.27
2023-01-30T07:05:22.699Z,12.70
2023-01-30T07:08:25.059Z,11.55
2023-01-30T07:11:28.168Z,11.65
2023-01-30T07:14:30.538Z,11.90
2023-01-30T07:17:33.528Z,14.32
2023-01-30T07:20:36.051Z,12.05
2023-01-30T07:23:38.661Z,11.88
2023-01-30T07:26:41.011Z,12.05
2023-01-30T07:29:43.661Z,12.77
2023-01-30T07:32:54.269Z,12.77
2023-01-30T07:35:56.960Z,11.55
2023-01-30T07:39:01.610Z,12.05
2023-01-30T07:42:04.944Z,12.10
2023-01-30T07:45:07.800Z,11.47
2023-01-30T07:48:15.557Z,12.30
2023-01-30T07:51:17.911Z,13.02
2023-01-30T07:54:20.671Z,12.10
2023-01-30T07:57:23.087Z,7.68
2023-01-30T08:00:25.969Z,12.90
2023-01-30T08:03:28.652Z,12.30
2023-01-30T08:06:31.140Z,11.52
2023-01-30T08:09:33.898Z,11.38
2023-01-30T08:12:36.277Z,11.90
2023-01-30T08:15:38.969Z,12.15
2023-01-30T08:18:41.424Z,13.48
2023-01-30T08:21:43.998Z,12.00
2023-01-30T08:24:46.791Z,13.85
2023-01-30T08:27:49.748Z,13.52
2023-01-30T08:30:53.441Z,15.02
2023-01-30T08:36:58.306Z,14.60
2023-01-30T08:40:03.635Z,13.80
2023-01-30T08:43:06.409Z,16.58
2023-01-30T08:46:09.156Z,16.30
2023-01-30T08:49:11.912Z,15.25
2023-01-30T08:52:14.587Z,15.50
2023-01-30T08:55:18.024Z,16.45
2023-01-30T08:58:22.017Z,16.87
2023-01-30T09:01:24.370Z,16.77
2023-01-30T09:04:30.769Z,13.50
2023-01-30T09:07:33.119Z,10.55
2023-01-30T09:10:36.559Z,10.88
2023-01-30T09:13:43.492Z,9.73
2023-01-30T09:16:48.239Z,11.12
2023-01-30T09:19:50.656Z,11.30
2023-01-30T09:22:53.581Z,7.43
2023-01-30T09:25:56.013Z,11.00
2023-01-30T09:28:58.598Z,6.87
2023-01-30T09:32:01.044Z,11.90
2023-01-30T09:35:04.595Z,9.70
2023-01-30T09:38:06.942Z,11.65
2023-01-30T09:41:28.445Z,10.13
2023-01-30T09:44:58.706Z,12.63
2023-01-30T09:48:04.441Z,10.65
2023-01-30T09:51:51.325Z,11.25
2023-01-30T09:55:02.041Z,10.02
2023-01-30T09:58:04.839Z,12.80
2023-01-30T10:01:15.393Z,11.65
2023-01-30T10:04:36.353Z,9.05
2023-01-30T10:07:52.476Z,10.75
2023-01-30T10:11:33.990Z,12.05
2023-01-30T10:14:46.828Z,9.57
2023-01-30T10:18:08.158Z,11.52
2023-01-30T10:21:21.111Z,8.13
2023-01-30T10:24:40.823Z,12.20
2023-01-30T10:27:52.539Z,7.55
2023-01-30T10:31:10.325Z,12.05
2023-01-30T10:34:37.623Z,12.45
2023-01-30T10:38:01.089Z,13.07
2023-01-30T10:41:36.263Z,8.82
2023-01-30T10:44:44.070Z,9.40
2023-01-30T10:47:47.885Z,10.60
2023-01-30T10:50:56.609Z,10.23
2023-01-30T10:54:13.523Z,10.02
2023-01-30T10:57:23.958Z,9.90
2023-01-30T11:00:37.402Z,7.15
2023-01-30T11:03:55.780Z,9.98
2023-01-30T11:07:01.997Z,11.95
2023-01-30T11:10:15.819Z,11.85
2023-01-30T11:13:30.696Z,10.13
2023-01-30T11:16:43.412Z,12.13
2023-01-30T11:19:53.420Z,12.50
2023-01-30T11:23:08.725Z,10.27
2023-01-30T11:26:19.300Z,9.57
2023-01-30T11:29:33.709Z,11.15
2023-01-30T11:32:37.240Z,13.55
2023-01-30T11:39:23.136Z,11.65
2023-01-30T11:42:31.741Z,12.37
2023-01-30T11:45:38.569Z,12.40
2023-01-30T11:49:46.069Z,13.55
2023-01-30T11:52:38.083Z,12.32
2023-01-30T11:55:43.185Z,13.50
2023-01-30T11:59:00.739Z,12.95
2023-01-30T12:02:40.476Z,12.63
2023-01-30T12:05:46.786Z,12.57
2023-01-30T12:08:53.006Z,12.20
2023-01-30T12:11:55.733Z,12.07
2023-01-30T12:15:22.009Z,11.32
2023-01-30T12:18:38.421Z,12.70
2023-01-30T12:21:57.285Z,12.63
2023-01-30T12:25:03.420Z,13.07
2023-01-30T12:28:35.048Z,13.30
2023-01-30T12:31:46.390Z,12.05
2023-01-30T12:34:50.840Z,12.88
2023-01-30T12:38:20.438Z,10.35
2023-01-30T12:41:57.010Z,10.93
2023-01-30T12:45:34.862Z,11.98
2023-01-30T12:49:10.896Z,9.40
2023-01-30T12:52:33.365Z,10.93
2023-01-30T12:55:55.627Z,11.20
2023-01-30T12:59:13.368Z,7.47
2023-01-30T13:02:27.111Z,10.77
2023-01-30T13:05:41.800Z,11.40
2023-01-30T13:12:26.102Z,8.98
2023-01-30T13:15:59.015Z,11.02
2023-01-30T13:19:06.177Z,10.02
2023-01-30T13:22:27.397Z,8.75
2023-01-30T13:25:38.894Z,11.10
2023-01-30T13:28:50.442Z,10.30
2023-01-30T13:31:58.139Z,9.00
2023-01-30T13:35:04.760Z,11.10
2023-01-30T13:38:10.503Z,9.65
2023-01-30T13:41:15.012Z,7.97
2023-01-30T13:44:23.028Z,9.32
2023-01-30T13:47:31.416Z,10.65
2023-01-30T13:50:59.017Z,11.60
2023-01-30T13:54:04.363Z,9.55
2023-01-30T13:57:22.164Z,10.63
2023-01-30T14:00:33.303Z,10.95
2023-01-30T14:03:36.170Z,11.45
2023-01-30T14:06:39.486Z,9.73
2023-01-30T14:10:02.084Z,10.27
2023-01-30T14:13:06.383Z,8.10
2023-01-30T14:16:09.474Z,10.23
2023-01-30T14:19:24.057Z,9.45
2023-01-30T14:22:31.121Z,9.48
2023-01-30T14:25:43.445Z,10.07
2023-01-30T14:28:47.212Z,10.15
2023-01-30T14:31:51.003Z,8.98
2023-01-30T14:35:02.861Z,9.95
2023-01-30T14:38:14.207Z,9.90
2023-01-30T14:41:26.941Z,9.00
2023-01-30T14:44:55.276Z,9.93
2023-01-30T14:48:33.511Z,9.13
2023-01-30T14:51:49.675Z,10.35
2023-01-30T14:54:52.337Z,9.68
2023-01-30T14:58:01.604Z,8.93
2023-01-30T15:01:04.953Z,10.55
2023-01-30T15:04:12.250Z,10.25
2023-01-30T15:07:20.154Z,10.40
2023-01-30T15:10:56.544Z,10.57
2023-01-30T15:14:11.970Z,9.77
2023-01-30T15:17:37.651Z,7.60
2023-01-30T15:20:52.406Z,10.18
2023-01-30T15:24:18.950Z,10.88
2023-01-30T15:27:31.856Z,10.55
2023-01-30T15:30:47.386Z,10.52
2023-01-30T15:33:52.216Z,10.95
2023-01-30T15:36:54.674Z,10.30
2023-01-30T15:40:20.435Z,9.00
2023-01-30T15:43:29.001Z,9.27
2023-01-30T15:46:43.459Z,8.27
2023-01-30T15:49:57.164Z,8.65
2023-01-30T15:53:00.122Z,8.45
2023-01-30T15:56:07.094Z,10.27
2023-01-30T15:59:34.827Z,9.98
2023-01-30T16:02:37.697Z,9.48
2023-01-30T16:05:48.026Z,10.13
2023-01-30T16:09:20.428Z,10.40
2023-01-30T16:12:28.259Z,8.88
2023-01-30T16:15:30.771Z,10.30
2023-01-30T16:18:49.700Z,9.85
2023-01-30T16:21:55.251Z,9.30
2023-01-30T16:24:57.957Z,8.23
2023-01-30T16:28:00.630Z,8.65
2023-01-30T16:31:06.919Z,10.25
2023-01-30T16:34:30.999Z,10.63
2023-01-30T16:37:33.654Z,10.00
2023-01-30T16:40:46.401Z,10.63
2023-01-30T16:44:08.273Z,10.80
2023-01-30T16:47:22.401Z,10.82
2023-01-30T16:50:25.417Z,9.70
2023-01-30T16:53:30.707Z,10.77
2023-01-30T16:56:34.707Z,10.25
2023-01-30T16:59:37.917Z,10.30
2023-01-30T17:02:42.552Z,10.70
2023-01-30T17:05:47.909Z,9.48
2023-01-30T17:08:54.281Z,10.10
2023-01-30T17:11:56.766Z,10.13
2023-01-30T17:15:14.204Z,10.35
2023-01-30T17:18:17.265Z,8.77
2023-01-30T17:21:22.998Z,10.10
2023-01-30T17:24:26.212Z,8.98
2023-01-30T17:27:30.509Z,8.15
2023-01-30T17:33:35.302Z,8.10
2023-01-30T17:36:39.124Z,8.68
2023-01-30T17:39:41.845Z,8.00
2023-01-30T17:42:44.899Z,7.90
2023-01-30T17:45:48.251Z,8.52
2023-01-30T17:48:51.836Z,8.13
2023-01-30T17:54:57.927Z,7.70
2023-01-30T17:58:01.475Z,8.60
2023-01-30T18:01:06.528Z,8.20
2023-01-30T18:04:09.564Z,7.75
2023-01-30T18:07:14.641Z,7.72
2023-01-30T18:10:19.991Z,7.45
2023-01-30T18:13:22.618Z,7.93
2023-01-30T18:16:28.827Z,7.70
2023-01-30T18:19:31.846Z,8.63
2023-01-30T18:22:34.701Z,7.62
2023-01-30T18:25:37.324Z,7.72
2023-01-30T18:28:40.280Z,7.68
2023-01-30T18:31:43.082Z,7.70
2023-01-30T18:34:46.135Z,8.50
2023-01-30T18:37:49.887Z,8.20
2023-01-30T18:40:52.615Z,8.00
2023-01-30T18:43:56.968Z,8.27
2023-01-30T18:46:59.971Z,8.68
2023-01-30T18:50:02.401Z,8.70
2023-01-30T18:53:05.119Z,8.73
2023-01-30T18:56:09.277Z,7.50
2023-01-30T18:59:11.923Z,7.47
2023-01-30T19:02:14.377Z,8.10
2023-01-30T19:05:17.121Z,7.78
2023-01-30T19:08:19.672Z,7.97
2023-01-30T19:11:41.432Z,7.32
2023-01-30T19:14:44.821Z,7.70
2023-01-30T19:17:47.485Z,7.75
2023-01-30T19:20:50.113Z,7.47
2023-01-30T19:23:53.452Z,6.55
2023-01-30T19:26:56.097Z,7.80
2023-01-30T19:29:58.963Z,7.33
2023-01-30T19:33:01.413Z,8.32
2023-01-30T19:36:11.545Z,7.07
2023-01-30T19:39:14.125Z,5.95
2023-01-30T19:42:16.786Z,5.97
2023-01-30T19:45:19.905Z,5.53
2023-01-30T19:48:22.543Z,4.28
2023-01-30T19:51:30.517Z,4.82
2023-01-30T19:54:34.400Z,4.28
2023-01-30T19:57:36.810Z,4.35
2023-01-30T20:00:39.438Z,3.85
2023-01-30T20:03:42.786Z,4.22
2023-01-30T20:06:45.976Z,3.57
2023-01-30T20:09:48.722Z,4.62
2023-01-30T20:12:51.108Z,4.90
2023-01-30T20:15:54.765Z,4.57
2023-01-30T20:18:59.054Z,4.43
2023-01-30T20:22:07.275Z,3.65
2023-01-30T20:25:10.357Z,4.05
2023-01-30T20:28:12.977Z,5.32
2023-01-30T20:31:20.948Z,4.80
2023-01-30T20:34:23.881Z,3.60
2023-01-30T20:37:26.557Z,3.42
2023-01-30T20:40:29.177Z,4.25
2023-01-30T20:43:34.404Z,4.25
2023-01-30T20:46:41.559Z,3.20
2023-01-30T20:49:44.638Z,3.45
2023-01-30T20:52:51.467Z,3.63
2023-01-30T20:55:57.248Z,3.50
2023-01-30T20:59:01.222Z,3.25
2023-01-30T21:02:03.524Z,3.15
2023-01-30T21:05:07.069Z,3.50
2023-01-30T21:08:09.460Z,3.37
2023-01-30T21:11:17.265Z,2.67
2023-01-30T21:14:19.599Z,3.42
2023-01-30T21:17:22.168Z,3.25
2023-01-30T21:20:24.523Z,3.40
2023-01-30T21:23:28.970Z,5.07
2023-01-30T21:26:33.385Z,4.80
2023-01-30T21:29:36.882Z,3.08
2023-01-30T21:32:39.256Z,3.10
2023-01-30T21:35:42.189Z,3.10
2023-01-30T21:39:03.087Z,2.78
2023-01-30T21:42:27.096Z,2.80
2023-01-30T21:45:29.424Z,2.97
2023-01-30T21:48:32.025Z,2.60
2023-01-30T21:51:34.811Z,3.30
2023-01-30T21:54:37.800Z,2.83
2023-01-30T21:57:40.120Z,3.22
2023-01-30T22:00:42.951Z,2.58
2023-01-30T22:03:46.176Z,2.95
2023-01-30T22:06:48.563Z,2.85
2023-01-30T22:09:51.112Z,2.35
2023-01-30T22:12:53.685Z,2.95
2023-01-30T22:16:00.141Z,2.80
2023-01-30T22:19:04.772Z,2.72
2023-01-30T22:22:07.426Z,3.15
2023-01-30T22:25:09.987Z,2.80
2023-01-30T22:28:12.613Z,2.83
2023-01-30T22:31:18.154Z,2.65
2023-01-30T22:34:21.562Z,2.67
2023-01-30T22:37:23.878Z,2.90
2023-01-30T22:40:26.489Z,2.92
2023-01-30T22:43:30.629Z,2.53
2023-01-30T22:46:36.453Z,2.72
2023-01-30T22:49:39.645Z,3.05
2023-01-30T22:52:42.240Z,2.85
2023-01-30T22:55:44.552Z,2.87
2023-01-30T22:58:48.486Z,2.67
2023-01-30T23:01:51.100Z,2.20
2023-01-30T23:04:54.363Z,2.20
2023-01-30T23:07:57.377Z,2.22
2023-01-30T23:11:15.585Z,2.53
2023-01-30T23:14:18.205Z,2.15
2023-01-30T23:17:39.588Z,2.15
2023-01-30T23:20:41.899Z,2.10
2023-01-30T23:23:45.441Z,2.30
2023-01-30T23:26:50.987Z,2.30
2023-01-30T23:29:53.628Z,2.00
2023-01-30T23:32:55.937Z,1.90
2023-01-30T23:36:03.157Z,1.80
2023-01-30T23:39:05.512Z,2.10
2023-01-30T23:42:08.163Z,2.47
2023-01-30T23:45:10.959Z,1.90
2023-01-30T23:48:13.637Z,1.97
2023-01-30T23:51:17.807Z,1.98
2023-01-30T23:54:20.484Z,2.53
2023-01-30T23:57:22.787Z,2.25
